createdAt,value
2018-03-17T00:00:04.574Z,3.62
2018-03-17T00:02:33.242Z,4.90
2018-03-17T00:05:01.937Z,5.25
2018-03-17T00:07:30.950Z,4.65
2018-03-17T00:10:00.984Z,4.90
2018-03-17T00:12:30.427Z,4.15
2018-03-17T00:14:59.065Z,6.20
2018-03-17T00:17:27.724Z,5.15
2018-03-17T00:19:56.574Z,5.53
2018-03-17T00:22:25.221Z,4.15
2018-03-17T00:24:53.915Z,5.82
2018-03-17T00:27:22.574Z,4.90
2018-03-17T00:29:51.216Z,5.20
2018-03-17T00:32:20.608Z,7.45
2018-03-17T00:34:49.071Z,4.78
2018-03-17T00:37:17.561Z,10.55
2018-03-17T00:39:46.213Z,4.12
2018-03-17T00:42:14.857Z,4.12
2018-03-17T00:44:44.256Z,5.57
2018-03-17T00:47:12.908Z,5.25
2018-03-17T00:49:41.566Z,5.45
2018-03-17T00:52:10.189Z,5.47
2018-03-17T00:54:38.829Z,4.15
2018-03-17T00:57:07.509Z,5.72
2018-03-17T00:59:36.143Z,7.18
2018-03-17T01:02:04.443Z,5.60
2018-03-17T01:04:33.100Z,4.28
2018-03-17T01:07:01.747Z,6.03
2018-03-17T01:09:31.152Z,4.53
2018-03-17T01:11:59.788Z,5.55
2018-03-17T01:14:28.252Z,6.03
2018-03-17T01:16:56.713Z,4.57
2018-03-17T01:19:25.345Z,3.60
2018-03-17T01:21:54.014Z,5.07
2018-03-17T01:24:22.648Z,5.87
2018-03-17T01:26:52.051Z,6.28
2018-03-17T01:29:21.462Z,5.07
2018-03-17T01:31:51.064Z,6.03
2018-03-17T01:34:20.468Z,3.53
2018-03-17T01:36:49.869Z,4.60
2018-03-17T01:39:19.301Z,4.30
2018-03-17T01:41:47.944Z,4.47
2018-03-17T01:44:16.574Z,8.32
2018-03-17T01:46:45.259Z,4.05
2018-03-17T01:49:13.893Z,4.93
2018-03-17T01:51:42.552Z,5.75
2018-03-17T01:54:22.524Z,5.95
2018-03-17T01:56:51.213Z,4.15
2018-03-17T01:59:19.998Z,10.85
2018-03-17T02:01:48.818Z,3.47
2018-03-17T02:04:18.211Z,3.75
2018-03-17T02:06:47.619Z,4.93
2018-03-17T02:09:16.362Z,5.03
2018-03-17T02:11:45.099Z,4.15
2018-03-17T02:14:13.760Z,3.45
2018-03-17T02:16:42.408Z,6.75
2018-03-17T02:19:11.038Z,3.90
2018-03-17T02:21:39.682Z,4.28
2018-03-17T02:24:08.327Z,4.20
2018-03-17T02:26:36.972Z,4.55
2018-03-17T02:29:05.660Z,6.20
2018-03-17T02:31:34.306Z,6.28
2018-03-17T02:34:03.723Z,4.00
2018-03-17T02:36:32.397Z,12.30
2018-03-17T02:39:01.031Z,3.33
2018-03-17T02:41:29.669Z,4.15
2018-03-17T02:43:58.393Z,4.12
2018-03-17T02:46:27.035Z,6.78
2018-03-17T02:48:56.444Z,5.37
2018-03-17T02:51:25.095Z,3.90
2018-03-17T02:53:53.761Z,6.47
2018-03-17T02:56:22.433Z,6.18
2018-03-17T02:58:51.089Z,3.40
2018-03-17T03:01:20.491Z,4.75
2018-03-17T03:03:49.890Z,4.70
2018-03-17T03:06:19.308Z,5.70
2018-03-17T03:08:47.971Z,3.42
2018-03-17T03:11:16.601Z,5.18
2018-03-17T03:13:45.231Z,7.37
2018-03-17T03:16:13.880Z,4.35
2018-03-17T03:18:42.509Z,7.93
2018-03-17T03:21:11.169Z,7.15
2018-03-17T03:23:39.800Z,4.32
2018-03-17T03:26:09.199Z,5.05
2018-03-17T03:28:38.609Z,4.30
2018-03-17T03:31:08.009Z,3.42
2018-03-17T03:33:37.440Z,4.75
2018-03-17T03:36:06.070Z,6.47
2018-03-17T03:38:34.706Z,7.25
2018-03-17T03:41:03.413Z,3.35
2018-03-17T03:43:32.053Z,4.85
2018-03-17T03:46:01.500Z,4.40
2018-03-17T03:48:30.138Z,3.62
2018-03-17T03:50:59.545Z,4.43
2018-03-17T03:53:28.985Z,5.20
2018-03-17T03:55:57.617Z,3.92
2018-03-17T03:58:26.260Z,3.87
2018-03-17T04:00:54.909Z,5.55
2018-03-17T04:03:23.538Z,5.97
2018-03-17T04:05:52.200Z,4.32
2018-03-17T04:08:20.859Z,5.30
2018-03-17T04:10:49.492Z,5.40
2018-03-17T04:13:18.112Z,4.75
2018-03-17T04:15:46.783Z,6.05
2018-03-17T04:18:15.419Z,4.15
2018-03-17T04:20:44.813Z,5.32
2018-03-17T04:23:14.036Z,4.80
2018-03-17T04:25:42.673Z,4.28
2018-03-17T04:28:11.445Z,7.32
2018-03-17T04:30:40.114Z,6.90
2018-03-17T04:33:09.552Z,12.73
2018-03-17T04:35:38.209Z,7.28
2018-03-17T04:38:06.833Z,6.95
2018-03-17T04:40:35.482Z,3.65
2018-03-17T04:43:04.555Z,4.68
2018-03-17T04:45:33.185Z,6.43
2018-03-17T04:48:01.832Z,6.25
2018-03-17T04:50:30.484Z,6.82
2018-03-17T04:52:59.116Z,7.30
2018-03-17T04:55:27.436Z,14.55
2018-03-17T04:57:56.081Z,18.52
2018-03-17T05:00:24.848Z,19.20
2018-03-17T05:02:53.494Z,19.08
2018-03-17T05:05:22.145Z,21.50
2018-03-17T05:07:50.809Z,18.50
2018-03-17T05:10:19.660Z,23.17
2018-03-17T05:12:48.332Z,22.95
2018-03-17T05:15:16.997Z,18.77
2018-03-17T05:17:45.654Z,15.27
2018-03-17T05:20:14.310Z,19.42
2018-03-17T05:22:42.974Z,21.58
2018-03-17T05:25:11.630Z,23.87
2018-03-17T05:27:40.299Z,15.45
2018-03-17T05:30:08.970Z,13.05
2018-03-17T05:32:38.368Z,9.48
2018-03-17T05:35:07.778Z,10.65
2018-03-17T05:37:37.024Z,12.55
2018-03-17T05:40:05.497Z,9.48
2018-03-17T05:42:34.900Z,9.80
2018-03-17T05:45:03.562Z,17.75
2018-03-17T05:47:32.224Z,13.30
2018-03-17T05:50:01.105Z,26.02
2018-03-17T05:52:29.756Z,23.90
2018-03-17T05:54:58.445Z,25.23
2018-03-17T05:57:27.152Z,16.92
2018-03-17T05:59:55.809Z,17.20
2018-03-17T06:02:24.461Z,15.50
2018-03-17T06:04:53.142Z,14.75
2018-03-17T06:07:21.785Z,17.08
2018-03-17T06:09:50.431Z,16.95
2018-03-17T06:12:19.120Z,15.13
2018-03-17T06:14:47.761Z,15.98
2018-03-17T06:17:16.426Z,17.10
2018-03-17T06:19:45.063Z,13.00
2018-03-17T06:22:13.921Z,13.48
2018-03-17T06:24:42.577Z,12.23
2018-03-17T06:27:11.230Z,13.40
2018-03-17T06:29:40.646Z,13.30
2018-03-17T06:32:09.289Z,12.27
2018-03-17T06:34:37.944Z,13.35
2018-03-17T06:37:06.604Z,10.85
2018-03-17T06:39:35.253Z,13.18
2018-03-17T06:42:03.893Z,11.98
2018-03-17T06:44:32.603Z,9.80
2018-03-17T06:47:01.702Z,12.98
2018-03-17T06:49:30.372Z,12.40
2018-03-17T06:51:59.088Z,12.35
2018-03-17T06:54:27.772Z,11.38
2018-03-17T06:56:56.457Z,15.85
2018-03-17T06:59:25.154Z,13.43
2018-03-17T07:01:54.054Z,11.80
2018-03-17T07:04:22.781Z,16.87
2018-03-17T07:06:51.461Z,16.95
2018-03-17T07:09:20.181Z,13.93
2018-03-17T07:11:48.928Z,16.45
2018-03-17T07:14:18.606Z,17.00
2018-03-17T07:16:47.524Z,9.63
2018-03-17T07:19:17.204Z,14.13
2018-03-17T07:21:45.946Z,12.05
2018-03-17T07:24:14.637Z,15.32
2018-03-17T07:26:43.321Z,14.48
2018-03-17T07:29:12.008Z,18.50
2018-03-17T07:31:40.949Z,10.27
2018-03-17T07:34:09.638Z,12.85
2018-03-17T07:36:38.344Z,23.85
2018-03-17T07:39:07.286Z,19.08
2018-03-17T07:41:35.985Z,15.40
2018-03-17T07:46:37.904Z,11.93
2018-03-17T07:49:07.400Z,11.57
2018-03-17T07:51:36.068Z,13.15
2018-03-17T07:54:04.153Z,12.10
2018-03-17T07:56:32.841Z,10.32
2018-03-17T07:59:01.759Z,20.77
2018-03-17T08:01:30.461Z,11.82
2018-03-17T08:03:59.142Z,10.50
2018-03-17T08:06:27.826Z,9.80
2018-03-17T08:08:57.335Z,18.15
2018-03-17T08:11:26.141Z,11.98
2018-03-17T08:13:54.580Z,15.13
2018-03-17T08:16:23.272Z,17.00
2018-03-17T08:18:51.773Z,23.10
2018-03-17T08:21:21.254Z,12.48
2018-03-17T08:23:49.945Z,14.85
2018-03-17T08:26:18.623Z,11.50
2018-03-17T08:28:47.286Z,16.77
2018-03-17T08:31:16.033Z,16.05
2018-03-17T08:33:44.949Z,19.95
2018-03-17T08:36:14.164Z,23.73
2018-03-17T08:38:42.886Z,22.92
2018-03-17T08:41:12.332Z,23.25
2018-03-17T08:43:41.242Z,21.65
2018-03-17T08:46:11.027Z,22.37
2018-03-17T08:48:40.024Z,22.90
2018-03-17T08:51:08.816Z,23.95
2018-03-17T08:53:37.552Z,24.15
2018-03-17T08:56:06.283Z,23.05
2018-03-17T08:58:35.136Z,20.50
2018-03-17T09:01:03.885Z,22.45
2018-03-17T09:03:32.746Z,22.00
2018-03-17T09:06:03.489Z,20.45
2018-03-17T09:08:32.178Z,22.33
2018-03-17T09:11:01.665Z,19.95
2018-03-17T09:13:30.346Z,19.27
2018-03-17T09:15:59.073Z,18.35
2018-03-17T09:18:28.037Z,22.05
2018-03-17T09:20:56.781Z,17.80
2018-03-17T09:23:25.473Z,18.37
2018-03-17T09:25:54.162Z,14.77
2018-03-17T09:28:22.902Z,17.05
2018-03-17T09:30:52.396Z,18.58
2018-03-17T09:33:21.951Z,14.65
2018-03-17T09:35:50.870Z,17.05
2018-03-17T09:38:19.850Z,16.30
2018-03-17T09:40:48.757Z,22.58
2018-03-17T09:43:18.465Z,14.70
2018-03-17T09:45:47.459Z,15.60
2018-03-17T09:48:17.133Z,14.73
2018-03-17T09:50:46.089Z,17.25
2018-03-17T09:53:14.786Z,17.75
2018-03-17T09:55:44.238Z,17.52
2018-03-17T09:58:13.650Z,14.57
2018-03-17T10:00:42.361Z,12.80
2018-03-17T10:03:11.153Z,13.95
2018-03-17T10:05:39.833Z,10.85
2018-03-17T10:08:08.502Z,13.62
2018-03-17T10:10:37.152Z,10.23
2018-03-17T10:13:05.804Z,10.73
2018-03-17T10:15:34.456Z,11.48
2018-03-17T10:18:03.108Z,8.88
2018-03-17T10:20:32.548Z,10.20
2018-03-17T10:23:01.206Z,7.90
2018-03-17T10:25:29.889Z,10.85
2018-03-17T10:27:59.316Z,8.48
2018-03-17T10:30:27.966Z,10.73
2018-03-17T10:32:56.625Z,9.13
2018-03-17T10:35:25.314Z,9.85
2018-03-17T10:37:54.135Z,5.05
2018-03-17T10:40:23.556Z,9.45
2018-03-17T10:42:52.184Z,5.78
2018-03-17T10:45:20.661Z,7.37
2018-03-17T10:47:49.141Z,7.30
2018-03-17T10:50:17.960Z,5.87
2018-03-17T10:52:46.605Z,6.00
2018-03-17T10:55:15.080Z,5.80
2018-03-17T10:57:44.476Z,6.07
2018-03-17T11:00:13.007Z,8.05
2018-03-17T11:02:41.665Z,6.40
2018-03-17T11:05:10.136Z,5.90
2018-03-17T11:07:38.596Z,11.02
2018-03-17T11:10:08.721Z,10.40
2018-03-17T11:12:37.381Z,7.18
2018-03-17T11:15:06.050Z,6.47
2018-03-17T11:17:34.714Z,5.95
2018-03-17T11:20:03.079Z,8.90
2018-03-17T11:22:31.723Z,6.90
2018-03-17T11:25:00.065Z,6.47
2018-03-17T11:27:28.757Z,6.93
2018-03-17T11:29:57.392Z,6.90
2018-03-17T11:32:26.800Z,7.93
2018-03-17T11:34:56.231Z,7.47
2018-03-17T11:37:24.923Z,6.65
2018-03-17T11:39:53.681Z,7.72
2018-03-17T11:42:22.593Z,7.53
2018-03-17T11:44:51.265Z,9.35
2018-03-17T11:47:19.728Z,9.15
2018-03-17T11:49:48.850Z,7.72
2018-03-17T11:52:17.780Z,9.60
2018-03-17T11:54:46.609Z,7.10
2018-03-17T11:57:16.021Z,8.10
2018-03-17T11:59:44.791Z,8.52
2018-03-17T12:02:13.743Z,7.60
2018-03-17T12:04:42.511Z,6.45
2018-03-17T12:07:11.437Z,7.07
2018-03-17T12:09:40.410Z,8.35
2018-03-17T12:12:09.901Z,5.97
2018-03-17T12:14:38.640Z,8.65
2018-03-17T12:17:07.408Z,7.15
2018-03-17T12:19:36.363Z,6.35
2018-03-17T12:22:05.400Z,6.65
2018-03-17T12:24:34.401Z,7.30
2018-03-17T12:27:03.407Z,6.07
2018-03-17T12:29:32.367Z,7.05
2018-03-17T12:32:01.332Z,6.18
2018-03-17T12:34:30.324Z,5.95
2018-03-17T12:36:59.826Z,4.97
2018-03-17T12:39:28.547Z,4.93
2018-03-17T12:41:57.532Z,3.53
2018-03-17T12:44:26.523Z,4.00
2018-03-17T12:46:55.288Z,4.37
2018-03-17T12:49:25.014Z,3.95
2018-03-17T12:51:54.001Z,4.93
2018-03-17T12:54:22.936Z,5.57
2018-03-17T12:56:51.676Z,4.15
2018-03-17T12:59:21.168Z,3.97
2018-03-17T13:01:49.974Z,3.97
2018-03-17T13:04:19.466Z,3.22
2018-03-17T13:06:48.176Z,2.72
2018-03-17T13:09:16.933Z,2.72
2018-03-17T13:11:45.841Z,1.90
2018-03-17T13:14:14.587Z,2.62
2018-03-17T13:16:43.543Z,2.78
2018-03-17T13:19:23.547Z,3.03
2018-03-17T13:21:52.590Z,2.12
2018-03-17T13:24:21.322Z,3.47
2018-03-17T13:27:01.344Z,2.87
2018-03-17T13:29:30.110Z,3.47
2018-03-17T13:31:59.797Z,3.42
2018-03-17T13:34:28.902Z,3.15
2018-03-17T13:37:08.993Z,4.07
2018-03-17T13:39:38.042Z,3.28
2018-03-17T13:42:07.003Z,3.25
2018-03-17T13:44:35.735Z,3.35
2018-03-17T13:47:04.209Z,3.70
2018-03-17T13:49:32.928Z,2.33
2018-03-17T13:52:01.651Z,2.72
2018-03-17T13:54:30.823Z,2.10
2018-03-17T13:56:59.756Z,2.97
2018-03-17T13:59:28.489Z,3.25
2018-03-17T14:01:58.276Z,3.10
2018-03-17T14:04:27.067Z,2.97
2018-03-17T14:06:55.741Z,3.67
2018-03-17T14:09:25.185Z,3.53
2018-03-17T14:11:55.001Z,3.90
2018-03-17T14:14:23.733Z,3.37
2018-03-17T14:16:52.575Z,5.95
2018-03-17T14:19:21.330Z,4.53
2018-03-17T14:21:50.273Z,5.00
2018-03-17T14:24:18.769Z,2.97
2018-03-17T14:26:47.758Z,3.10
2018-03-17T14:29:16.684Z,2.15
2018-03-17T14:31:45.621Z,3.67
2018-03-17T14:34:14.607Z,3.62
2018-03-17T14:36:44.340Z,3.45
2018-03-17T14:39:13.005Z,2.62
2018-03-17T14:41:42.762Z,3.15
2018-03-17T14:44:12.233Z,2.87
2018-03-17T14:46:41.773Z,3.25
2018-03-17T14:49:10.578Z,2.05
2018-03-17T14:51:39.499Z,3.35
2018-03-17T14:54:08.210Z,3.87
2018-03-17T14:56:37.018Z,2.87
2018-03-17T14:59:06.461Z,2.87
2018-03-17T15:01:35.165Z,2.70
2018-03-17T15:04:03.818Z,3.25
2018-03-17T15:06:34.783Z,2.62
2018-03-17T15:09:02.965Z,2.90
2018-03-17T15:11:31.915Z,2.83
2018-03-17T15:14:00.590Z,2.85
2018-03-17T15:16:29.334Z,4.25
2018-03-17T15:18:58.053Z,4.10
2018-03-17T15:21:27.513Z,4.05
2018-03-17T15:23:57.386Z,3.62
2018-03-17T15:26:26.123Z,4.12
2018-03-17T15:28:54.818Z,4.80
2018-03-17T15:31:24.120Z,3.87
2018-03-17T15:33:53.783Z,4.47
2018-03-17T15:36:22.654Z,3.30
2018-03-17T15:38:52.122Z,3.97
2018-03-17T15:41:20.808Z,4.70
2018-03-17T15:43:49.511Z,4.50
2018-03-17T15:46:18.215Z,4.97
2018-03-17T15:48:47.689Z,5.97
2018-03-17T15:51:16.428Z,6.20
2018-03-17T15:53:45.178Z,4.97
2018-03-17T15:56:14.022Z,7.90
2018-03-17T15:58:42.744Z,6.70
2018-03-17T16:01:11.097Z,3.87
2018-03-17T16:03:39.454Z,5.93
2018-03-17T16:06:08.133Z,6.85
2018-03-17T16:08:37.582Z,6.43
2018-03-17T16:11:06.271Z,9.30
2018-03-17T16:13:34.985Z,7.57
2018-03-17T16:16:03.676Z,8.43
2018-03-17T16:18:32.349Z,5.82
2018-03-17T16:21:01.049Z,7.62
2018-03-17T16:23:29.716Z,7.15
2018-03-17T16:25:58.408Z,6.28
2018-03-17T16:28:27.127Z,5.05
2018-03-17T16:30:56.644Z,7.62
2018-03-17T16:33:25.290Z,6.80
2018-03-17T16:35:54.083Z,5.12
2018-03-17T16:38:22.766Z,5.65
2018-03-17T16:40:51.483Z,5.97
2018-03-17T16:43:20.971Z,6.68
2018-03-17T16:45:49.682Z,9.52
2018-03-17T16:48:18.369Z,6.47
2018-03-17T16:50:47.843Z,6.05
2018-03-17T16:53:16.566Z,4.55
2018-03-17T16:55:45.813Z,6.87
2018-03-17T16:58:14.889Z,6.62
2018-03-17T17:00:43.773Z,4.75
2018-03-17T17:03:12.717Z,5.78
2018-03-17T17:05:42.329Z,16.35
2018-03-17T17:08:11.077Z,8.88
2018-03-17T17:10:39.811Z,7.20
2018-03-17T17:13:08.982Z,5.97
2018-03-17T17:15:37.864Z,5.18
2018-03-17T17:18:06.374Z,6.18
2018-03-17T17:20:35.270Z,6.12
2018-03-17T17:23:03.954Z,11.88
2018-03-17T17:25:32.778Z,5.95
2018-03-17T17:28:01.506Z,5.80
2018-03-17T17:30:30.201Z,6.35
2018-03-17T17:32:58.905Z,4.20
2018-03-17T17:35:27.622Z,2.75
2018-03-17T17:37:57.146Z,3.22
2018-03-17T17:40:26.799Z,5.45
2018-03-17T17:42:56.383Z,5.32
2018-03-17T17:45:25.833Z,4.37
2018-03-17T17:47:54.581Z,26.85
2018-03-17T17:50:23.470Z,18.73
2018-03-17T17:52:52.273Z,12.75
2018-03-17T17:55:21.383Z,8.95
2018-03-17T17:57:50.550Z,5.00
2018-03-17T18:00:19.764Z,3.10
2018-03-17T18:02:49.483Z,3.60
2018-03-17T18:05:19.398Z,14.02
2018-03-17T18:07:48.470Z,10.45
2018-03-17T18:10:17.617Z,4.40
2018-03-17T18:12:46.527Z,5.93
2018-03-17T18:15:16.676Z,3.42
2018-03-17T18:17:45.688Z,4.95
2018-03-17T18:20:14.720Z,2.53
2018-03-17T18:22:43.889Z,3.08
2018-03-17T18:25:12.826Z,3.85
2018-03-17T18:27:41.823Z,3.28
2018-03-17T18:30:10.822Z,4.15
2018-03-17T18:32:39.952Z,3.67
2018-03-17T18:35:08.936Z,4.05
2018-03-17T18:37:37.909Z,2.30
2018-03-17T18:40:06.998Z,3.10
2018-03-17T18:42:36.115Z,2.85
2018-03-17T18:45:05.203Z,2.17
2018-03-17T18:47:34.266Z,2.37
2018-03-17T18:50:03.722Z,2.67
2018-03-17T18:52:32.737Z,2.40
2018-03-17T18:55:01.586Z,5.10
2018-03-17T18:57:30.587Z,3.25
2018-03-17T18:59:59.317Z,3.35
2018-03-17T19:02:28.572Z,4.07
2018-03-17T19:04:57.731Z,2.37
2018-03-17T19:07:26.717Z,2.80
2018-03-17T19:09:55.613Z,2.70
2018-03-17T19:12:24.618Z,2.70
2018-03-17T19:14:54.457Z,2.55
2018-03-17T19:17:23.491Z,2.20
2018-03-17T19:19:52.550Z,3.35
2018-03-17T19:22:21.555Z,3.67
2018-03-17T19:24:50.656Z,3.33
2018-03-17T19:27:19.599Z,3.78
2018-03-17T19:29:48.487Z,2.45
2018-03-17T19:32:17.562Z,3.42
2018-03-17T19:34:46.628Z,2.50
2018-03-17T19:37:15.562Z,3.20
2018-03-17T19:39:44.331Z,2.47
2018-03-17T19:42:13.055Z,3.03
2018-03-17T19:44:41.301Z,3.05
2018-03-17T19:47:10.281Z,2.92
2018-03-17T19:49:39.104Z,3.67
2018-03-17T19:52:08.852Z,2.28
2018-03-17T19:54:37.590Z,2.22
2018-03-17T19:57:06.854Z,2.95
2018-03-17T19:59:36.757Z,2.60
2018-03-17T20:04:39.183Z,1.85
2018-03-17T20:07:07.916Z,4.40
2018-03-17T20:09:36.665Z,2.80
2018-03-17T20:12:05.669Z,2.60
2018-03-17T20:14:34.403Z,3.50
2018-03-17T20:17:02.783Z,2.37
2018-03-17T20:19:31.341Z,2.50
2018-03-17T20:22:00.294Z,2.78
2018-03-17T20:24:29.007Z,2.95
2018-03-17T20:26:58.708Z,2.87
2018-03-17T20:29:27.438Z,4.12
2018-03-17T20:31:56.229Z,3.28
2018-03-17T20:34:24.994Z,3.75
2018-03-17T20:36:54.662Z,3.65
2018-03-17T20:39:24.140Z,2.42
2018-03-17T20:41:52.961Z,5.30
2018-03-17T20:44:21.688Z,2.25
2018-03-17T20:46:50.384Z,2.45
2018-03-17T20:49:19.099Z,2.53
2018-03-17T20:51:48.113Z,2.97
2018-03-17T20:54:17.574Z,2.55
2018-03-17T20:56:47.413Z,2.30
2018-03-17T20:59:16.986Z,2.03
2018-03-17T21:01:46.141Z,2.15
2018-03-17T21:04:15.913Z,3.90
2018-03-17T21:06:45.668Z,3.75
2018-03-17T21:09:16.114Z,3.62
2018-03-17T21:11:45.306Z,4.28
2018-03-17T21:14:14.531Z,2.87
2018-03-17T21:16:44.704Z,2.67
2018-03-17T21:19:14.052Z,3.58
2018-03-17T21:21:44.690Z,3.28
2018-03-17T21:24:14.844Z,3.40
2018-03-17T21:26:44.999Z,2.60
2018-03-17T21:29:15.114Z,4.32
2018-03-17T21:31:44.288Z,2.90
2018-03-17T21:34:13.948Z,2.22
2018-03-17T21:36:43.060Z,2.45
2018-03-17T21:39:12.472Z,3.03
2018-03-17T21:41:41.561Z,2.42
2018-03-17T21:44:10.682Z,3.15
2018-03-17T21:46:40.548Z,3.58
2018-03-17T21:49:09.432Z,3.70
2018-03-17T21:51:38.540Z,2.85
2018-03-17T21:54:07.560Z,3.25
2018-03-17T21:56:38.227Z,4.90
2018-03-17T21:59:08.046Z,3.50
2018-03-17T22:01:37.077Z,3.55
2018-03-17T22:04:06.250Z,5.43
2018-03-17T22:06:35.274Z,4.00
2018-03-17T22:09:03.794Z,3.92
2018-03-17T22:11:32.867Z,6.07
2018-03-17T22:14:03.681Z,5.10
2018-03-17T22:16:32.779Z,4.30
2018-03-17T22:19:02.590Z,3.92
2018-03-17T22:21:32.713Z,5.00
2018-03-17T22:24:03.233Z,3.53
2018-03-17T22:26:32.369Z,4.65
2018-03-17T22:29:01.309Z,6.03
2018-03-17T22:31:30.310Z,10.43
2018-03-17T22:33:59.364Z,8.65
2018-03-17T22:36:29.118Z,5.95
2018-03-17T22:38:58.391Z,8.10
2018-03-17T22:41:27.894Z,5.70
2018-03-17T22:43:56.632Z,7.78
2018-03-17T22:46:25.188Z,12.45
2018-03-17T22:48:54.703Z,12.50
2018-03-17T22:51:24.192Z,12.10
2018-03-17T22:53:52.881Z,8.60
2018-03-17T22:56:21.645Z,7.70
2018-03-17T22:58:50.356Z,6.32
2018-03-17T23:01:19.073Z,7.20
2018-03-17T23:03:48.548Z,7.35
2018-03-17T23:06:17.241Z,8.57
2018-03-17T23:08:45.948Z,6.60
2018-03-17T23:11:15.142Z,5.70
2018-03-17T23:13:43.856Z,8.40
2018-03-17T23:16:12.578Z,7.03
2018-03-17T23:18:41.316Z,5.60
2018-03-17T23:21:10.786Z,5.43
2018-03-17T23:23:39.486Z,8.52
2018-03-17T23:26:08.233Z,4.50
2018-03-17T23:28:36.778Z,4.40
2018-03-17T23:31:06.287Z,3.92
2018-03-17T23:33:35.568Z,4.68
2018-03-17T23:36:03.746Z,5.28
2018-03-17T23:38:32.301Z,4.30
2018-03-17T23:41:00.823Z,3.72
2018-03-17T23:43:30.301Z,5.07
2018-03-17T23:45:58.852Z,5.55
2018-03-17T23:48:27.054Z,4.57
2018-03-17T23:50:55.646Z,4.50
2018-03-17T23:53:24.196Z,3.47
2018-03-17T23:55:52.729Z,5.22
2018-03-17T23:58:21.296Z,3.65
